sensor_id;sensor_type;location;lat;lon;timestamp;P1;durP1;ratioP1;P2;durP2;ratioP2
27666;SDS011;15074;50.940;5.282;2023-03-29T01:34:04;3.78;;;1.35;;
27666;SDS011;15074;50.940;5.282;2023-03-29T01:36:37;2.63;;;1.60;;
27666;SDS011;15074;50.940;5.282;2023-03-29T02:13:59;3.60;;;1.33;;
27666;SDS011;15074;50.940;5.282;2023-03-29T02:26:44;2.72;;;1.45;;
27666;SDS011;15074;50.940;5.282;2023-03-29T02:29:10;3.67;;;1.60;;
27666;SDS011;15074;50.940;5.282;2023-03-29T02:52:30;4.15;;;1.95;;
27666;SDS011;15074;50.940;5.282;2023-03-29T02:55:00;4.20;;;1.65;;
27666;SDS011;15074;50.940;5.282;2023-03-29T02:57:29;2.50;;;1.58;;
27666;SDS011;15074;50.940;5.282;2023-03-29T02:59:56;2.58;;;1.73;;
27666;SDS011;15074;50.940;5.282;2023-03-29T03:02:23;2.95;;;1.52;;
27666;SDS011;15074;50.940;5.282;2023-03-29T03:04:53;3.17;;;1.60;;
27666;SDS011;15074;50.940;5.282;2023-03-29T03:07:19;2.72;;;1.80;;
27666;SDS011;15074;50.940;5.282;2023-03-29T03:09:45;5.15;;;1.60;;
27666;SDS011;15074;50.940;5.282;2023-03-29T03:12:13;2.85;;;1.77;;
27666;SDS011;15074;50.940;5.282;2023-03-29T03:14:39;2.65;;;1.70;;
27666;SDS011;15074;50.940;5.282;2023-03-29T03:33:41;2.25;;;1.70;;
27666;SDS011;15074;50.940;5.282;2023-03-29T03:45:26;3.33;;;1.63;;
27666;SDS011;15074;50.940;5.282;2023-03-29T03:47:51;2.35;;;1.70;;
27666;SDS011;15074;50.940;5.282;2023-03-29T04:04:02;3.13;;;1.75;;
27666;SDS011;15074;50.940;5.282;2023-03-29T04:06:28;6.25;;;2.20;;
27666;SDS011;15074;50.940;5.282;2023-03-29T04:08:54;3.05;;;2.15;;
27666;SDS011;15074;50.940;5.282;2023-03-29T04:11:20;4.25;;;1.73;;
27666;SDS011;15074;50.940;5.282;2023-03-29T04:13:46;2.47;;;1.65;;
27666;SDS011;15074;50.940;5.282;2023-03-29T04:16:12;2.78;;;1.80;;
27666;SDS011;15074;50.940;5.282;2023-03-29T04:18:37;4.32;;;1.75;;
27666;SDS011;15074;50.940;5.282;2023-03-29T04:21:03;2.92;;;1.70;;
27666;SDS011;15074;50.940;5.282;2023-03-29T04:23:29;5.07;;;1.65;;
27666;SDS011;15074;50.940;5.282;2023-03-29T04:25:55;2.30;;;1.40;;
27666;SDS011;15074;50.940;5.282;2023-03-29T04:28:20;4.60;;;2.10;;
27666;SDS011;15074;50.940;5.282;2023-03-29T04:30:46;3.05;;;1.77;;
27666;SDS011;15074;50.940;5.282;2023-03-29T04:33:13;2.33;;;1.80;;
27666;SDS011;15074;50.940;5.282;2023-03-29T04:35:38;2.33;;;1.60;;
27666;SDS011;15074;50.940;5.282;2023-03-29T04:38:04;3.25;;;2.08;;
27666;SDS011;15074;50.940;5.282;2023-03-29T04:40:33;3.28;;;2.17;;
27666;SDS011;15074;50.940;5.282;2023-03-29T04:43:00;2.45;;;1.85;;
27666;SDS011;15074;50.940;5.282;2023-03-29T04:45:26;3.47;;;1.90;;
27666;SDS011;15074;50.940;5.282;2023-03-29T04:47:56;2.83;;;1.95;;
27666;SDS011;15074;50.940;5.282;2023-03-29T04:50:23;4.10;;;2.00;;
27666;SDS011;15074;50.940;5.282;2023-03-29T04:52:49;4.30;;;2.42;;
27666;SDS011;15074;50.940;5.282;2023-03-29T04:55:15;3.17;;;2.10;;
27666;SDS011;15074;50.940;5.282;2023-03-29T04:57:41;7.13;;;2.20;;
27666;SDS011;15074;50.940;5.282;2023-03-29T05:00:08;4.88;;;1.98;;
27666;SDS011;15074;50.940;5.282;2023-03-29T05:02:42;2.90;;;2.00;;
27666;SDS011;15074;50.940;5.282;2023-03-29T05:05:08;6.70;;;2.17;;
27666;SDS011;15074;50.940;5.282;2023-03-29T05:07:35;2.88;;;1.98;;
27666;SDS011;15074;50.940;5.282;2023-03-29T05:10:01;5.38;;;2.40;;
27666;SDS011;15074;50.940;5.282;2023-03-29T05:12:27;5.30;;;2.10;;
27666;SDS011;15074;50.940;5.282;2023-03-29T05:14:52;6.13;;;2.60;;
27666;SDS011;15074;50.940;5.282;2023-03-29T05:17:34;3.33;;;1.92;;
27666;SDS011;15074;50.940;5.282;2023-03-29T05:26:53;3.30;;;2.00;;
27666;SDS011;15074;50.940;5.282;2023-03-29T05:29:20;5.15;;;2.20;;
27666;SDS011;15074;50.940;5.282;2023-03-29T05:31:47;3.53;;;2.00;;
27666;SDS011;15074;50.940;5.282;2023-03-29T05:34:13;2.92;;;2.08;;
27666;SDS011;15074;50.940;5.282;2023-03-29T05:36:39;3.35;;;2.25;;
27666;SDS011;15074;50.940;5.282;2023-03-29T05:39:06;3.95;;;1.80;;
27666;SDS011;15074;50.940;5.282;2023-03-29T05:57:52;4.15;;;2.00;;
27666;SDS011;15074;50.940;5.282;2023-03-29T06:00:18;3.47;;;2.55;;
27666;SDS011;15074;50.940;5.282;2023-03-29T06:02:47;3.22;;;2.28;;
27666;SDS011;15074;50.940;5.282;2023-03-29T06:15:06;3.17;;;1.95;;
27666;SDS011;15074;50.940;5.282;2023-03-29T06:17:33;4.53;;;2.25;;
27666;SDS011;15074;50.940;5.282;2023-03-29T06:22:52;2.90;;;2.00;;
27666;SDS011;15074;50.940;5.282;2023-03-29T06:25:18;6.18;;;2.72;;
27666;SDS011;15074;50.940;5.282;2023-03-29T06:37:39;4.38;;;2.55;;
27666;SDS011;15074;50.940;5.282;2023-03-29T06:40:25;3.30;;;2.40;;
27666;SDS011;15074;50.940;5.282;2023-03-29T06:42:52;5.13;;;2.17;;
27666;SDS011;15074;50.940;5.282;2023-03-29T06:45:43;4.50;;;2.08;;
27666;SDS011;15074;50.940;5.282;2023-03-29T06:48:08;4.57;;;2.15;;
27666;SDS011;15074;50.940;5.282;2023-03-29T06:50:34;7.30;;;2.92;;
27666;SDS011;15074;50.940;5.282;2023-03-29T06:53:00;4.28;;;2.10;;
27666;SDS011;15074;50.940;5.282;2023-03-29T06:55:27;5.20;;;2.15;;
27666;SDS011;15074;50.940;5.282;2023-03-29T06:57:53;3.65;;;2.40;;
27666;SDS011;15074;50.940;5.282;2023-03-29T07:00:19;6.82;;;2.85;;
27666;SDS011;15074;50.940;5.282;2023-03-29T07:02:55;5.75;;;2.40;;
27666;SDS011;15074;50.940;5.282;2023-03-29T07:05:23;4.25;;;2.83;;
27666;SDS011;15074;50.940;5.282;2023-03-29T07:07:51;3.67;;;2.50;;
27666;SDS011;15074;50.940;5.282;2023-03-29T07:10:21;4.35;;;2.20;;
27666;SDS011;15074;50.940;5.282;2023-03-29T07:12:50;4.60;;;2.60;;
27666;SDS011;15074;50.940;5.282;2023-03-29T07:15:16;4.07;;;2.63;;
27666;SDS011;15074;50.940;5.282;2023-03-29T07:17:44;6.32;;;2.78;;
27666;SDS011;15074;50.940;5.282;2023-03-29T07:20:11;6.00;;;3.10;;
27666;SDS011;15074;50.940;5.282;2023-03-29T07:22:41;10.00;;;3.07;;
27666;SDS011;15074;50.940;5.282;2023-03-29T07:25:08;5.07;;;2.60;;
27666;SDS011;15074;50.940;5.282;2023-03-29T07:27:36;5.90;;;3.03;;
27666;SDS011;15074;50.940;5.282;2023-03-29T07:30:03;12.27;;;2.42;;
27666;SDS011;15074;50.940;5.282;2023-03-29T07:35:21;4.45;;;2.40;;
27666;SDS011;15074;50.940;5.282;2023-03-29T07:37:47;4.03;;;2.63;;
27666;SDS011;15074;50.940;5.282;2023-03-29T07:42:58;2.95;;;2.10;;
27666;SDS011;15074;50.940;5.282;2023-03-29T07:45:24;4.88;;;2.35;;
27666;SDS011;15074;50.940;5.282;2023-03-29T07:50:56;3.13;;;1.73;;
27666;SDS011;15074;50.940;5.282;2023-03-29T07:53:22;5.40;;;2.35;;
27666;SDS011;15074;50.940;5.282;2023-03-29T07:55:48;2.97;;;2.20;;
27666;SDS011;15074;50.940;5.282;2023-03-29T08:00:42;4.28;;;1.95;;
27666;SDS011;15074;50.940;5.282;2023-03-29T08:09:14;3.25;;;2.38;;
27666;SDS011;15074;50.940;5.282;2023-03-29T08:11:40;4.65;;;2.35;;
27666;SDS011;15074;50.940;5.282;2023-03-29T08:14:06;7.35;;;2.50;;
27666;SDS011;15074;50.940;5.282;2023-03-29T08:16:33;10.73;;;2.55;;
27666;SDS011;15074;50.940;5.282;2023-03-29T08:18:58;2.63;;;1.73;;
27666;SDS011;15074;50.940;5.282;2023-03-29T08:21:24;3.78;;;1.95;;
27666;SDS011;15074;50.940;5.282;2023-03-29T08:23:50;4.90;;;2.30;;
27666;SDS011;15074;50.940;5.282;2023-03-29T08:33:02;3.38;;;1.90;;
27666;SDS011;15074;50.940;5.282;2023-03-29T08:35:29;4.50;;;2.42;;
27666;SDS011;15074;50.940;5.282;2023-03-29T08:37:55;4.25;;;2.50;;
27666;SDS011;15074;50.940;5.282;2023-03-29T08:40:21;3.22;;;2.35;;
27666;SDS011;15074;50.940;5.282;2023-03-29T08:48:58;4.78;;;1.90;;
27666;SDS011;15074;50.940;5.282;2023-03-29T08:51:46;5.70;;;2.05;;
27666;SDS011;15074;50.940;5.282;2023-03-29T08:54:20;4.47;;;2.05;;
27666;SDS011;15074;50.940;5.282;2023-03-29T09:00:19;5.63;;;2.53;;
27666;SDS011;15074;50.940;5.282;2023-03-29T09:02:48;6.28;;;3.03;;
27666;SDS011;15074;50.940;5.282;2023-03-29T09:05:32;4.47;;;2.60;;
27666;SDS011;15074;50.940;5.282;2023-03-29T09:08:07;4.97;;;2.70;;
27666;SDS011;15074;50.940;5.282;2023-03-29T09:10:41;4.00;;;2.05;;
27666;SDS011;15074;50.940;5.282;2023-03-29T09:16:16;3.72;;;1.92;;
27666;SDS011;15074;50.940;5.282;2023-03-29T09:19:02;5.53;;;2.45;;
27666;SDS011;15074;50.940;5.282;2023-03-29T09:21:57;5.32;;;2.38;;
27666;SDS011;15074;50.940;5.282;2023-03-29T09:27:25;4.53;;;2.53;;
27666;SDS011;15074;50.940;5.282;2023-03-29T09:29:57;3.67;;;2.00;;
27666;SDS011;15074;50.940;5.282;2023-03-29T09:32:58;4.22;;;2.47;;
27666;SDS011;15074;50.940;5.282;2023-03-29T09:38:11;4.28;;;2.72;;
27666;SDS011;15074;50.940;5.282;2023-03-29T09:40:41;9.02;;;2.80;;
27666;SDS011;15074;50.940;5.282;2023-03-29T09:46:40;3.22;;;2.33;;
27666;SDS011;15074;50.940;5.282;2023-03-29T09:49:19;5.70;;;3.15;;
27666;SDS011;15074;50.940;5.282;2023-03-29T09:51:52;3.28;;;2.53;;
27666;SDS011;15074;50.940;5.282;2023-03-29T10:04:53;5.20;;;3.30;;
27666;SDS011;15074;50.940;5.282;2023-03-29T10:07:19;4.65;;;2.40;;
27666;SDS011;15074;50.940;5.282;2023-03-29T10:09:46;3.53;;;2.33;;
27666;SDS011;15074;50.940;5.282;2023-03-29T10:12:15;3.42;;;2.00;;
27666;SDS011;15074;50.940;5.282;2023-03-29T10:14:47;3.95;;;2.50;;
27666;SDS011;15074;50.940;5.282;2023-03-29T10:20:41;9.15;;;3.20;;
27666;SDS011;15074;50.940;5.282;2023-03-29T10:33:17;15.55;;;8.13;;
27666;SDS011;15074;50.940;5.282;2023-03-29T10:35:46;5.30;;;3.00;;
27666;SDS011;15074;50.940;5.282;2023-03-29T10:38:13;4.25;;;2.85;;
27666;SDS011;15074;50.940;5.282;2023-03-29T10:40:46;6.18;;;2.80;;
27666;SDS011;15074;50.940;5.282;2023-03-29T10:45:42;5.53;;;2.78;;
27666;SDS011;15074;50.940;5.282;2023-03-29T10:48:11;3.72;;;2.42;;
27666;SDS011;15074;50.940;5.282;2023-03-29T10:50:39;5.55;;;2.75;;
27666;SDS011;15074;50.940;5.282;2023-03-29T10:53:10;2.83;;;2.15;;
27666;SDS011;15074;50.940;5.282;2023-03-29T11:01:15;4.38;;;2.70;;
27666;SDS011;15074;50.940;5.282;2023-03-29T11:06:35;3.95;;;2.28;;
27666;SDS011;15074;50.940;5.282;2023-03-29T11:14:40;3.28;;;1.92;;
27666;SDS011;15074;50.940;5.282;2023-03-29T11:25:40;3.15;;;1.88;;
27666;SDS011;15074;50.940;5.282;2023-03-29T11:36:37;3.45;;;1.98;;
27666;SDS011;15074;50.940;5.282;2023-03-29T11:39:13;2.40;;;1.95;;
27666;SDS011;15074;50.940;5.282;2023-03-29T11:41:45;3.78;;;2.33;;
27666;SDS011;15074;50.940;5.282;2023-03-29T11:49:41;4.00;;;2.53;;
27666;SDS011;15074;50.940;5.282;2023-03-29T11:54:59;3.20;;;2.10;;
27666;SDS011;15074;50.940;5.282;2023-03-29T11:57:46;3.78;;;2.08;;
27666;SDS011;15074;50.940;5.282;2023-03-29T12:03:12;2.95;;;1.80;;
27666;SDS011;15074;50.940;5.282;2023-03-29T12:06:01;3.83;;;2.35;;
27666;SDS011;15074;50.940;5.282;2023-03-29T12:08:34;3.97;;;2.50;;
27666;SDS011;15074;50.940;5.282;2023-03-29T12:11:06;2.55;;;1.98;;
27666;SDS011;15074;50.940;5.282;2023-03-29T12:13:34;4.53;;;3.97;;
27666;SDS011;15074;50.940;5.282;2023-03-29T12:19:13;3.42;;;3.08;;
27666;SDS011;15074;50.940;5.282;2023-03-29T12:21:45;3.22;;;2.53;;
27666;SDS011;15074;50.940;5.282;2023-03-29T12:24:12;4.53;;;1.75;;
27666;SDS011;15074;50.940;5.282;2023-03-29T12:26:44;2.58;;;1.67;;
27666;SDS011;15074;50.940;5.282;2023-03-29T12:29:30;2.78;;;1.40;;
27666;SDS011;15074;50.940;5.282;2023-03-29T12:40:54;3.05;;;2.53;;
27666;SDS011;15074;50.940;5.282;2023-03-29T12:43:43;2.55;;;1.60;;
27666;SDS011;15074;50.940;5.282;2023-03-29T12:46:29;2.88;;;1.50;;
27666;SDS011;15074;50.940;5.282;2023-03-29T12:48:59;3.28;;;1.92;;
27666;SDS011;15074;50.940;5.282;2023-03-29T12:51:33;2.70;;;2.25;;
27666;SDS011;15074;50.940;5.282;2023-03-29T12:54:05;3.40;;;1.85;;
27666;SDS011;15074;50.940;5.282;2023-03-29T12:57:20;2.83;;;1.63;;
27666;SDS011;15074;50.940;5.282;2023-03-29T12:59:44;4.88;;;1.80;;
27666;SDS011;15074;50.940;5.282;2023-03-29T13:09:51;2.15;;;1.58;;
27666;SDS011;15074;50.940;5.282;2023-03-29T13:14:59;1.95;;;1.70;;
27666;SDS011;15074;50.940;5.282;2023-03-29T13:20:29;3.23;;;1.60;;
27666;SDS011;15074;50.940;5.282;2023-03-29T13:26:22;1.80;;;1.30;;
27666;SDS011;15074;50.940;5.282;2023-03-29T13:39:31;4.88;;;1.50;;
27666;SDS011;15074;50.940;5.282;2023-03-29T13:44:42;2.13;;;1.30;;
27666;SDS011;15074;50.940;5.282;2023-03-29T13:49:58;1.97;;;1.30;;
27666;SDS011;15074;50.940;5.282;2023-03-29T13:52:29;1.85;;;1.15;;
27666;SDS011;15074;50.940;5.282;2023-03-29T14:00:45;2.05;;;1.05;;
27666;SDS011;15074;50.940;5.282;2023-03-29T14:03:18;2.78;;;1.13;;
27666;SDS011;15074;50.940;5.282;2023-03-29T14:05:51;0.93;;;0.80;;
27666;SDS011;15074;50.940;5.282;2023-03-29T14:08:28;2.08;;;0.80;;
27666;SDS011;15074;50.940;5.282;2023-03-29T14:10:59;1.50;;;1.10;;
27666;SDS011;15074;50.940;5.282;2023-03-29T14:13:30;1.63;;;1.10;;
27666;SDS011;15074;50.940;5.282;2023-03-29T14:16:01;1.50;;;1.20;;
27666;SDS011;15074;50.940;5.282;2023-03-29T14:18:42;2.05;;;1.27;;
27666;SDS011;15074;50.940;5.282;2023-03-29T14:21:10;4.72;;;1.02;;
27666;SDS011;15074;50.940;5.282;2023-03-29T14:23:37;1.98;;;1.10;;
27666;SDS011;15074;50.940;5.282;2023-03-29T14:26:08;2.28;;;1.20;;
27666;SDS011;15074;50.940;5.282;2023-03-29T14:28:42;7.55;;;1.35;;
27666;SDS011;15074;50.940;5.282;2023-03-29T14:31:25;2.47;;;1.35;;
27666;SDS011;15074;50.940;5.282;2023-03-29T14:33:58;2.03;;;1.10;;
27666;SDS011;15074;50.940;5.282;2023-03-29T14:36:25;2.83;;;1.20;;
27666;SDS011;15074;50.940;5.282;2023-03-29T14:39:02;5.90;;;1.50;;
27666;SDS011;15074;50.940;5.282;2023-03-29T14:41:46;3.55;;;1.60;;
27666;SDS011;15074;50.940;5.282;2023-03-29T14:44:14;2.80;;;1.38;;
27666;SDS011;15074;50.940;5.282;2023-03-29T14:46:40;2.97;;;1.23;;
27666;SDS011;15074;50.940;5.282;2023-03-29T14:49:08;4.35;;;1.40;;
27666;SDS011;15074;50.940;5.282;2023-03-29T14:51:38;2.70;;;1.45;;
27666;SDS011;15074;50.940;5.282;2023-03-29T14:54:04;1.33;;;1.20;;
27666;SDS011;15074;50.940;5.282;2023-03-29T14:56:31;3.20;;;1.53;;
27666;SDS011;15074;50.940;5.282;2023-03-29T14:58:58;3.75;;;1.20;;
27666;SDS011;15074;50.940;5.282;2023-03-29T15:01:26;2.75;;;0.90;;
27666;SDS011;15074;50.940;5.282;2023-03-29T15:06:29;1.60;;;1.10;;
27666;SDS011;15074;50.940;5.282;2023-03-29T15:08:56;2.55;;;1.05;;
27666;SDS011;15074;50.940;5.282;2023-03-29T15:11:26;2.60;;;1.05;;
27666;SDS011;15074;50.940;5.282;2023-03-29T15:13:57;2.17;;;1.00;;
27666;SDS011;15074;50.940;5.282;2023-03-29T15:16:30;1.52;;;1.10;;
27666;SDS011;15074;50.940;5.282;2023-03-29T15:18:57;1.60;;;1.17;;
27666;SDS011;15074;50.940;5.282;2023-03-29T15:21:27;2.78;;;0.93;;
27666;SDS011;15074;50.940;5.282;2023-03-29T15:23:59;2.03;;;0.88;;
27666;SDS011;15074;50.940;5.282;2023-03-29T15:29:15;1.55;;;1.00;;
27666;SDS011;15074;50.940;5.282;2023-03-29T15:31:56;3.35;;;1.30;;
27666;SDS011;15074;50.940;5.282;2023-03-29T15:34:26;2.10;;;1.10;;
27666;SDS011;15074;50.940;5.282;2023-03-29T15:36:53;2.55;;;1.30;;
27666;SDS011;15074;50.940;5.282;2023-03-29T15:41:48;2.38;;;0.90;;
27666;SDS011;15074;50.940;5.282;2023-03-29T15:46:41;2.65;;;1.10;;
27666;SDS011;15074;50.940;5.282;2023-03-29T15:49:11;3.08;;;1.13;;
27666;SDS011;15074;50.940;5.282;2023-03-29T15:51:37;2.03;;;1.13;;
27666;SDS011;15074;50.940;5.282;2023-03-29T15:54:03;3.50;;;1.10;;
27666;SDS011;15074;50.940;5.282;2023-03-29T15:56:30;5.40;;;1.58;;
27666;SDS011;15074;50.940;5.282;2023-03-29T15:59:01;2.25;;;1.20;;
27666;SDS011;15074;50.940;5.282;2023-03-29T16:01:32;2.45;;;1.55;;
27666;SDS011;15074;50.940;5.282;2023-03-29T16:04:03;3.63;;;1.48;;
27666;SDS011;15074;50.940;5.282;2023-03-29T16:06:31;2.05;;;1.27;;
27666;SDS011;15074;50.940;5.282;2023-03-29T16:08:57;2.47;;;1.33;;
27666;SDS011;15074;50.940;5.282;2023-03-29T16:11:23;1.90;;;1.35;;
27666;SDS011;15074;50.940;5.282;2023-03-29T16:13:49;2.65;;;1.40;;
27666;SDS011;15074;50.940;5.282;2023-03-29T16:16:15;2.80;;;1.60;;
27666;SDS011;15074;50.940;5.282;2023-03-29T16:18:41;4.00;;;1.73;;
27666;SDS011;15074;50.940;5.282;2023-03-29T16:21:11;2.00;;;1.27;;
27666;SDS011;15074;50.940;5.282;2023-03-29T16:23:38;1.92;;;1.33;;
27666;SDS011;15074;50.940;5.282;2023-03-29T16:26:04;2.53;;;1.42;;
27666;SDS011;15074;50.940;5.282;2023-03-29T16:28:30;2.85;;;1.67;;
27666;SDS011;15074;50.940;5.282;2023-03-29T16:30:56;3.53;;;1.60;;
27666;SDS011;15074;50.940;5.282;2023-03-29T16:33:22;2.30;;;1.80;;
27666;SDS011;15074;50.940;5.282;2023-03-29T16:35:47;4.20;;;1.90;;
27666;SDS011;15074;50.940;5.282;2023-03-29T16:38:13;2.72;;;1.73;;
27666;SDS011;15074;50.940;5.282;2023-03-29T16:40:39;3.80;;;1.88;;
27666;SDS011;15074;50.940;5.282;2023-03-29T16:43:05;6.18;;;2.17;;
27666;SDS011;15074;50.940;5.282;2023-03-29T16:45:31;3.20;;;1.73;;
27666;SDS011;15074;50.940;5.282;2023-03-29T16:47:57;3.95;;;2.08;;
27666;SDS011;15074;50.940;5.282;2023-03-29T16:50:22;5.47;;;2.45;;
27666;SDS011;15074;50.940;5.282;2023-03-29T16:52:48;4.30;;;2.00;;
27666;SDS011;15074;50.940;5.282;2023-03-29T16:55:16;5.05;;;2.30;;
27666;SDS011;15074;50.940;5.282;2023-03-29T16:57:43;3.60;;;2.50;;
27666;SDS011;15074;50.940;5.282;2023-03-29T17:00:10;3.03;;;2.00;;
27666;SDS011;15074;50.940;5.282;2023-03-29T17:02:44;3.35;;;2.53;;
27666;SDS011;15074;50.940;5.282;2023-03-29T17:05:10;4.03;;;2.20;;
27666;SDS011;15074;50.940;5.282;2023-03-29T17:07:37;5.88;;;2.92;;
27666;SDS011;15074;50.940;5.282;2023-03-29T17:10:03;4.90;;;3.00;;
27666;SDS011;15074;50.940;5.282;2023-03-29T17:12:30;5.93;;;2.75;;
27666;SDS011;15074;50.940;5.282;2023-03-29T17:14:56;3.88;;;2.50;;
27666;SDS011;15074;50.940;5.282;2023-03-29T17:17:22;3.65;;;2.25;;
27666;SDS011;15074;50.940;5.282;2023-03-29T17:19:48;6.57;;;2.88;;
27666;SDS011;15074;50.940;5.282;2023-03-29T17:22:13;3.47;;;2.30;;
27666;SDS011;15074;50.940;5.282;2023-03-29T17:24:39;5.72;;;2.60;;
27666;SDS011;15074;50.940;5.282;2023-03-29T17:27:05;8.00;;;2.88;;
27666;SDS011;15074;50.940;5.282;2023-03-29T17:29:31;5.18;;;2.67;;
27666;SDS011;15074;50.940;5.282;2023-03-29T17:31:56;5.28;;;2.58;;
27666;SDS011;15074;50.940;5.282;2023-03-29T17:34:22;5.72;;;3.45;;
27666;SDS011;15074;50.940;5.282;2023-03-29T17:36:48;4.38;;;3.10;;
27666;SDS011;15074;50.940;5.282;2023-03-29T17:39:17;4.90;;;3.70;;
27666;SDS011;15074;50.940;5.282;2023-03-29T17:41:43;7.47;;;4.38;;
27666;SDS011;15074;50.940;5.282;2023-03-29T17:44:10;5.13;;;3.40;;
27666;SDS011;15074;50.940;5.282;2023-03-29T17:46:36;9.50;;;4.15;;
27666;SDS011;15074;50.940;5.282;2023-03-29T17:49:02;7.03;;;3.25;;
27666;SDS011;15074;50.940;5.282;2023-03-29T17:51:28;5.10;;;3.60;;
27666;SDS011;15074;50.940;5.282;2023-03-29T17:53:55;7.20;;;3.65;;
27666;SDS011;15074;50.940;5.282;2023-03-29T17:56:21;7.03;;;3.63;;
27666;SDS011;15074;50.940;5.282;2023-03-29T17:58:47;4.38;;;2.90;;
27666;SDS011;15074;50.940;5.282;2023-03-29T18:01:13;4.78;;;3.38;;
27666;SDS011;15074;50.940;5.282;2023-03-29T18:03:41;5.67;;;3.70;;
27666;SDS011;15074;50.940;5.282;2023-03-29T18:06:06;9.13;;;3.78;;
27666;SDS011;15074;50.940;5.282;2023-03-29T18:08:32;7.47;;;3.42;;
27666;SDS011;15074;50.940;5.282;2023-03-29T18:11:12;5.97;;;3.47;;
27666;SDS011;15074;50.940;5.282;2023-03-29T18:13:46;5.80;;;3.50;;
27666;SDS011;15074;50.940;5.282;2023-03-29T18:16:12;4.63;;;3.67;;
27666;SDS011;15074;50.940;5.282;2023-03-29T18:18:38;6.03;;;4.18;;
27666;SDS011;15074;50.940;5.282;2023-03-29T18:21:04;7.68;;;4.93;;
27666;SDS011;15074;50.940;5.282;2023-03-29T18:23:34;6.90;;;4.13;;
27666;SDS011;15074;50.940;5.282;2023-03-29T18:26:00;6.15;;;4.18;;
27666;SDS011;15074;50.940;5.282;2023-03-29T18:28:30;6.15;;;4.63;;
27666;SDS011;15074;50.940;5.282;2023-03-29T18:30:56;6.55;;;5.25;;
27666;SDS011;15074;50.940;5.282;2023-03-29T18:33:22;6.72;;;5.50;;
27666;SDS011;15074;50.940;5.282;2023-03-29T18:35:49;11.88;;;4.97;;
27666;SDS011;15074;50.940;5.282;2023-03-29T18:38:18;4.68;;;4.28;;
27666;SDS011;15074;50.940;5.282;2023-03-29T18:40:47;7.22;;;4.43;;
27666;SDS011;15074;50.940;5.282;2023-03-29T18:43:15;5.57;;;4.60;;
27666;SDS011;15074;50.940;5.282;2023-03-29T18:45:42;5.82;;;4.53;;
27666;SDS011;15074;50.940;5.282;2023-03-29T18:48:08;5.13;;;4.22;;
27666;SDS011;15074;50.940;5.282;2023-03-29T18:50:34;4.45;;;3.85;;
27666;SDS011;15074;50.940;5.282;2023-03-29T18:53:01;7.47;;;4.88;;
27666;SDS011;15074;50.940;5.282;2023-03-29T18:55:28;6.13;;;5.53;;
27666;SDS011;15074;50.940;5.282;2023-03-29T18:57:54;8.57;;;5.35;;
27666;SDS011;15074;50.940;5.282;2023-03-29T19:00:20;8.20;;;4.45;;
27666;SDS011;15074;50.940;5.282;2023-03-29T19:02:45;6.20;;;4.60;;
27666;SDS011;15074;50.940;5.282;2023-03-29T19:05:11;7.95;;;5.03;;
27666;SDS011;15074;50.940;5.282;2023-03-29T19:07:37;6.25;;;4.88;;
27666;SDS011;15074;50.940;5.282;2023-03-29T19:10:04;6.25;;;5.07;;
27666;SDS011;15074;50.940;5.282;2023-03-29T19:12:30;8.65;;;6.15;;
27666;SDS011;15074;50.940;5.282;2023-03-29T19:14:59;6.28;;;4.97;;
27666;SDS011;15074;50.940;5.282;2023-03-29T19:17:25;7.22;;;5.43;;
27666;SDS011;15074;50.940;5.282;2023-03-29T19:19:51;6.35;;;4.00;;
27666;SDS011;15074;50.940;5.282;2023-03-29T19:22:17;7.72;;;4.78;;
27666;SDS011;15074;50.940;5.282;2023-03-29T19:24:42;5.28;;;3.85;;
27666;SDS011;15074;50.940;5.282;2023-03-29T19:27:08;7.68;;;4.70;;
27666;SDS011;15074;50.940;5.282;2023-03-29T19:29:34;7.18;;;4.38;;
27666;SDS011;15074;50.940;5.282;2023-03-29T19:32:00;8.27;;;4.18;;
27666;SDS011;15074;50.940;5.282;2023-03-29T19:34:26;5.00;;;4.22;;
27666;SDS011;15074;50.940;5.282;2023-03-29T19:36:53;11.43;;;5.03;;
27666;SDS011;15074;50.940;5.282;2023-03-29T19:39:19;8.93;;;4.50;;
27666;SDS011;15074;50.940;5.282;2023-03-29T19:41:45;6.60;;;4.03;;
27666;SDS011;15074;50.940;5.282;2023-03-29T19:44:11;5.53;;;3.60;;
27666;SDS011;15074;50.940;5.282;2023-03-29T19:46:37;4.80;;;3.50;;
27666;SDS011;15074;50.940;5.282;2023-03-29T19:49:04;6.15;;;3.70;;
27666;SDS011;15074;50.940;5.282;2023-03-29T19:51:30;4.97;;;3.83;;
27666;SDS011;15074;50.940;5.282;2023-03-29T19:53:56;10.60;;;4.10;;
27666;SDS011;15074;50.940;5.282;2023-03-29T19:56:24;5.03;;;3.35;;
27666;SDS011;15074;50.940;5.282;2023-03-29T19:58:50;3.83;;;3.33;;
27666;SDS011;15074;50.940;5.282;2023-03-29T20:01:19;6.85;;;3.85;;
27666;SDS011;15074;50.940;5.282;2023-03-29T20:03:46;8.15;;;3.95;;
27666;SDS011;15074;50.940;5.282;2023-03-29T20:06:13;7.22;;;3.67;;
27666;SDS011;15074;50.940;5.282;2023-03-29T20:08:40;7.93;;;4.10;;
27666;SDS011;15074;50.940;5.282;2023-03-29T20:11:06;5.95;;;3.13;;
27666;SDS011;15074;50.940;5.282;2023-03-29T20:13:34;7.97;;;3.40;;
27666;SDS011;15074;50.940;5.282;2023-03-29T20:16:03;3.75;;;2.70;;
27666;SDS011;15074;50.940;5.282;2023-03-29T20:18:33;5.07;;;3.20;;
27666;SDS011;15074;50.940;5.282;2023-03-29T20:21:02;4.75;;;3.20;;
27666;SDS011;15074;50.940;5.282;2023-03-29T20:23:28;4.43;;;2.88;;
27666;SDS011;15074;50.940;5.282;2023-03-29T20:25:55;4.65;;;2.70;;
27666;SDS011;15074;50.940;5.282;2023-03-29T20:28:21;5.22;;;2.70;;
27666;SDS011;15074;50.940;5.282;2023-03-29T20:30:47;4.65;;;2.53;;
27666;SDS011;15074;50.940;5.282;2023-03-29T20:33:15;4.95;;;2.75;;
27666;SDS011;15074;50.940;5.282;2023-03-29T20:35:45;7.82;;;2.90;;
27666;SDS011;15074;50.940;5.282;2023-03-29T20:38:11;5.30;;;3.08;;
27666;SDS011;15074;50.940;5.282;2023-03-29T20:40:38;3.47;;;2.30;;
27666;SDS011;15074;50.940;5.282;2023-03-29T20:43:07;5.75;;;2.63;;
27666;SDS011;15074;50.940;5.282;2023-03-29T20:45:43;5.03;;;2.40;;
27666;SDS011;15074;50.940;5.282;2023-03-29T20:48:12;2.95;;;2.20;;
27666;SDS011;15074;50.940;5.282;2023-03-29T20:50:38;4.82;;;2.17;;
27666;SDS011;15074;50.940;5.282;2023-03-29T20:53:05;3.40;;;1.92;;
27666;SDS011;15074;50.940;5.282;2023-03-29T20:55:32;6.13;;;2.47;;
27666;SDS011;15074;50.940;5.282;2023-03-29T20:57:59;7.30;;;2.03;;
27666;SDS011;15074;50.940;5.282;2023-03-29T21:00:26;6.82;;;2.13;;
27666;SDS011;15074;50.940;5.282;2023-03-29T21:02:53;2.28;;;1.70;;
27666;SDS011;15074;50.940;5.282;2023-03-29T21:05:20;4.30;;;2.05;;
27666;SDS011;15074;50.940;5.282;2023-03-29T21:07:46;4.07;;;1.83;;
27666;SDS011;15074;50.940;5.282;2023-03-29T21:10:12;5.88;;;2.03;;
27666;SDS011;15074;50.940;5.282;2023-03-29T21:12:39;4.60;;;2.10;;
27666;SDS011;15074;50.940;5.282;2023-03-29T21:15:06;3.63;;;1.83;;
27666;SDS011;15074;50.940;5.282;2023-03-29T21:17:33;4.18;;;2.10;;
27666;SDS011;15074;50.940;5.282;2023-03-29T21:20:00;5.43;;;2.17;;
27666;SDS011;15074;50.940;5.282;2023-03-29T21:22:35;4.05;;;1.90;;
27666;SDS011;15074;50.940;5.282;2023-03-29T21:25:03;4.68;;;2.45;;
27666;SDS011;15074;50.940;5.282;2023-03-29T21:27:34;3.20;;;1.85;;
27666;SDS011;15074;50.940;5.282;2023-03-29T21:29:59;10.57;;;2.00;;
27666;SDS011;15074;50.940;5.282;2023-03-29T21:32:25;4.60;;;1.85;;
27666;SDS011;15074;50.940;5.282;2023-03-29T21:34:51;2.50;;;1.70;;
27666;SDS011;15074;50.940;5.282;2023-03-29T21:37:17;4.38;;;1.88;;
27666;SDS011;15074;50.940;5.282;2023-03-29T21:39:42;3.35;;;1.50;;
27666;SDS011;15074;50.940;5.282;2023-03-29T21:42:08;2.53;;;1.60;;
27666;SDS011;15074;50.940;5.282;2023-03-29T21:44:34;2.63;;;1.60;;
27666;SDS011;15074;50.940;5.282;2023-03-29T21:47:00;4.85;;;1.67;;
27666;SDS011;15074;50.940;5.282;2023-03-29T21:49:25;3.22;;;1.55;;
27666;SDS011;15074;50.940;5.282;2023-03-29T21:51:51;3.03;;;1.33;;
27666;SDS011;15074;50.940;5.282;2023-03-29T21:54:17;2.40;;;1.50;;
27666;SDS011;15074;50.940;5.282;2023-03-29T21:56:42;4.15;;;1.80;;